Flight Track Log - Related Links

Times and Time Zones

All times are in EDT time to prevent confusion due to time zone crossing. See the CTL16 flight status page for this flight to view local times or setup timezone preferences in your user account.

Time Position Orientation Groundspeed Altitude Reporting Facility
EDT Latitude Longitude Course Direction KTS MPH feet Rate Location/Type
Fri 10:29:52 PM 44.7833 -93.4667 235° Southwest 129 148 3,000  Level Minneapolis TRACON
Fri 10:30:53 PM 44.7500 -93.4833 200° South 134 154 3,900 835 Climbing Minneapolis TRACON
Fri 10:31:47 PM 44.7167 -93.5000 200° South 131 151 4,600 789 Climbing Minneapolis TRACON
Fri 10:32:47 PM 44.6833 -93.5333 215° Southwest 127 146 5,400 750 Climbing Minneapolis TRACON
Fri 10:33:47 PM 44.6500 -93.5500 200° South 131 151 6,100 659 Climbing Minneapolis TRACON
Fri 10:34:00 PM 44.5749 -93.6314 208° Southwest  Level FlightAware Approximate
Fri 10:34:18 PM 44.6408 -93.5625 224° Southwest 127 146 6,400  Level Minneapolis Center
Fri 10:35:19 PM 44.6081 -93.5886 210° Southwest 134 154 7,000 634 Climbing Minneapolis Center
Fri 10:36:21 PM 44.5753 -93.6142 209° Southwest 134 154 7,700 488 Climbing Minneapolis Center
Fri 10:37:22 PM 44.5347 -93.6469 210° Southwest 143 165 8,000 148 Climbing Minneapolis Center
Fri 10:38:23 PM 44.4936 -93.6758 207° Southwest 159 183 8,000  Level Minneapolis Center
Fri 10:39:25 PM 44.4519 -93.7072 208° Southwest 169 194 8,000  Level Minneapolis Center
Fri 10:40:26 PM 44.4100 -93.7386 208° Southwest 169 194 8,000  Level Minneapolis Center
Fri 10:41:27 PM 44.3700 -93.7711 210° Southwest 169 194 8,000  Level Minneapolis Center
Fri 10:42:29 PM 44.3283 -93.8017 208° Southwest 169 194 8,000  Level Minneapolis Center
Fri 10:43:30 PM 44.2864 -93.8297 206° Southwest 169 194 8,000  Level Minneapolis Center
Fri 10:44:31 PM 44.2442 -93.8586 206° Southwest 169 194 8,000  Level Minneapolis Center
Fri 10:45:33 PM 44.1950 -93.8947 208° Southwest 169 194 8,000  Level Minneapolis Center
Fri 10:46:34 PM 44.1531 -93.9219 205° Southwest 169 194 8,000  Level Minneapolis Center
Fri 10:47:35 PM 44.1119 -93.9514 207° Southwest 168 193 8,000  Level Minneapolis Center
Fri 10:48:37 PM 44.0717 -93.9817 208° Southwest 167 192 8,000  Level Minneapolis Center
Fri 10:49:38 PM 44.0300 -94.0092 205° Southwest 167 192 8,000  Level Minneapolis Center
Fri 10:50:39 PM 43.9908 -94.0419 211° Southwest 167 192 8,000  Level Minneapolis Center
Fri 10:51:41 PM 43.9517 -94.0739 210° Southwest 166 191 8,000  Level Minneapolis Center
Fri 10:52:42 PM 43.9108 -94.1044 208° Southwest 166 191 8,000  Level Minneapolis Center
Fri 10:53:43 PM 43.8722 -94.1361 211° Southwest 166 191 8,000  Level Minneapolis Center
Fri 10:54:45 PM 43.8317 -94.1672 209° Southwest 166 191 8,000  Level Minneapolis Center
Fri 10:55:46 PM 43.7825 -94.2003 206° Southwest 166 191 8,000  Level Minneapolis Center
Fri 10:56:47 PM 43.7436 -94.2319 210° Southwest 165 190 8,000  Level Minneapolis Center
Fri 10:57:49 PM 43.7061 -94.2614 210° Southwest 165 190 8,000  Level Minneapolis Center
Fri 10:58:50 PM 43.6661 -94.2881 206° Southwest 163 188 8,000  Level Minneapolis Center
Fri 10:59:51 PM 43.6267 -94.3208 211° Southwest 164 189 8,000  Level Minneapolis Center
Fri 11:00:53 PM 43.5883 -94.3514 210° Southwest 163 188 8,000  Level Minneapolis Center
Fri 11:01:54 PM 43.5400 -94.3861 208° Southwest 163 188 8,000 49 Level Minneapolis Center
Fri 11:02:55 PM 43.4989 -94.4142 206° Southwest 163 188 8,100 49 Climbing Minneapolis Center
Fri 11:03:57 PM 43.4583 -94.4406 205° Southwest 163 188 8,100  Level Minneapolis Center
Fri 11:04:58 PM 43.4186 -94.4708 209° Southwest 163 188 8,100  Level Minneapolis Center
Fri 11:05:59 PM 43.3792 -94.4989 207° Southwest 163 188 8,100  Level Minneapolis Center
Fri 11:07:00 PM 43.3394 -94.5300 210° Southwest 163 188 8,100  Level Minneapolis Center
Fri 11:08:02 PM 43.2989 -94.5583 207° Southwest 163 188 8,100  Level Minneapolis Center
Fri 11:09:03 PM 43.2597 -94.5875 208° Southwest 163 188 8,100  Level Minneapolis Center
Fri 11:10:04 PM 43.2194 -94.6194 210° Southwest 163 188 8,100  Level Minneapolis Center
Fri 11:11:06 PM 43.1792 -94.6475 207° Southwest 163 188 8,100  Level Minneapolis Center
Fri 11:12:07 PM 43.1319 -94.6797 206° Southwest 163 188 8,100  Level Minneapolis Center
Fri 11:13:08 PM 43.0914 -94.7094 208° Southwest 163 188 8,100  Level Minneapolis Center
Fri 11:14:10 PM 43.0536 -94.7353 207° Southwest 162 186 8,100  Level Minneapolis Center
Fri 11:15:11 PM 43.0150 -94.7669 211° Southwest 159 183 8,100  Level Minneapolis Center
Fri 11:16:12 PM 42.9747 -94.7967 208° Southwest 160 184 8,100  Level Minneapolis Center
Fri 11:17:13 PM 42.9358 -94.8264 209° Southwest 161 185 8,100  Level Minneapolis Center
Fri 11:18:15 PM 42.8956 -94.8550 207° Southwest 161 185 8,100  Level Minneapolis Center
Fri 11:19:16 PM 42.8547 -94.8831 207° Southwest 161 185 8,100  Level Minneapolis Center
Fri 11:20:17 PM 42.8150 -94.9119 208° Southwest 161 185 8,100  Level Minneapolis Center
Fri 11:21:18 PM 42.7747 -94.9383 206° Southwest 161 185 8,100 -49 Level Minneapolis Center
Fri 11:22:19 PM 42.7275 -94.9703 206° Southwest 162 186 8,000 -49 Descending Minneapolis Center
Fri 11:23:21 PM 42.6875 -95.0003 209° Southwest 162 186 8,000  Level Minneapolis Center
Fri 11:24:22 PM 42.6478 -95.0286 208° Southwest 162 186 8,000  Level Minneapolis Center
Fri 11:25:23 PM 42.6078 -95.0619 212° Southwest 163 188 8,000  Level Minneapolis Center
Fri 11:26:24 PM 42.5667 -95.0897 206° Southwest 163 188 8,000  Level Minneapolis Center
Fri 11:27:25 PM 42.5267 -95.1175 207° Southwest 164 189 8,000  Level Minneapolis Center
Fri 11:28:27 PM 42.4858 -95.1442 206° Southwest 163 188 8,000  Level Minneapolis Center
Fri 11:29:28 PM 42.4458 -95.1742 209° Southwest 163 188 8,000  Level Minneapolis Center
Fri 11:30:29 PM 42.3967 -95.2108 209° Southwest 165 190 8,000  Level Minneapolis Center
Fri 11:31:30 PM 42.3547 -95.2375 205° Southwest 165 190 8,000  Level Minneapolis Center
Fri 11:32:31 PM 42.3117 -95.2661 206° Southwest 167 192 8,000  Level Minneapolis Center
Fri 11:33:33 PM 42.2708 -95.2947 207° Southwest 167 192 8,000  Level Minneapolis Center
Fri 11:34:34 PM 42.2292 -95.3222 206° Southwest 167 192 8,000  Level Minneapolis Center
Fri 11:35:35 PM 42.1872 -95.3514 207° Southwest 167 192 8,000 49 Level Minneapolis Center
Fri 11:36:36 PM 42.1467 -95.3819 209° Southwest 167 192 8,100  Climbing Minneapolis Center
Fri 11:37:37 PM 42.1050 -95.4089 206° Southwest 167 192 8,000 -49 Descending Minneapolis Center
Fri 11:38:39 PM 42.0617 -95.4347 204° Southwest 167 192 8,000 65 Level Minneapolis Center
Fri 11:39:09 PM 42.0392 -95.4758 234° Southwest 171 197 8,100  Climbing Minneapolis Center
Fri 11:39:40 PM 42.0197 -95.4639 155° Southeast 167 192 8,000 -100 Descending Minneapolis Center
Fri 11:40:09 PM 41.9969 -95.5036 232° Southwest 169 194 8,000  Level Minneapolis Center
Fri 11:40:41 PM 41.9775 -95.4925 157° South 168 193 8,000  Level Minneapolis Center
Fri 11:41:10 PM 41.9547 -95.5256 227° Southwest 169 194 8,000  Level Minneapolis Center
Fri 11:41:42 PM 41.9258 -95.5214 174° South 168 193 8,000  Level Minneapolis Center
Fri 11:42:11 PM 41.9086 -95.5564 237° Southwest 168 193 8,000  Level Minneapolis Center
Fri 11:42:43 PM 41.8839 -95.5508 171° South 168 193 8,000  Level Minneapolis Center
Fri 11:43:05 PM 41.8725 -95.5778 240° Southwest 168 193 8,000  Level Minneapolis Center
Fri 11:43:44 PM 41.8408 -95.5769 179° South 168 193 8,000 98 Level Minneapolis Center
Fri 11:44:06 PM 41.8261 -95.6058 236° Southwest 170 196 8,100  Climbing Minneapolis Center
Fri 11:44:45 PM 41.7983 -95.6017 174° South 168 193 8,000 -500 Descending Minneapolis Center
Fri 11:45:06 PM 41.7817 -95.6281 230° Southwest 171 197 7,600 -689 Descending Minneapolis Center
Fri 11:45:46 PM 41.7525 -95.6292 182° South 170 196 7,300 -590 Descending Minneapolis Center
Fri 11:46:07 PM 41.7353 -95.6558 229° Southwest 185 213 7,000 -774 Descending Minneapolis Center
Fri 11:46:48 PM 41.7053 -95.6506 173° South 175 201 6,500 -1,082 Descending Minneapolis Center
Fri 11:47:08 PM 41.6864 -95.6758 225° Southwest 194 223 5,900 -1,279 Descending Minneapolis Center
Fri 11:47:49 PM 41.6558 -95.6794 185° South 182 209 5,200 -1,100 Descending Minneapolis Center
Fri 11:48:08 PM 41.6364 -95.7069 227° Southwest 199 229 4,800 -1,180 Descending Minneapolis Center
Fri 11:48:50 PM 41.6075 -95.7119 187° South 189 217 4,000 -787 Descending Minneapolis Center
Fri 11:49:09 PM 41.5881 -95.7378 225° Southwest 193 222 4,000  Level Minneapolis Center
Fri 11:49:51 PM 41.5614 -95.7436 189° South 191 220 4,000  Level Minneapolis Center
Fri 11:50:15 PM 41.5422 -95.7711 227° Southwest 161 185 4,000 -492 Level Minneapolis Center
Fri 11:50:52 PM 41.5228 -95.7742 187° South 177 204 3,500 -764 Descending Minneapolis Center
Fri 11:51:10 PM 41.5025 -95.8008 225° Southwest 172 198 3,300 -393 Descending Minneapolis Center
Fri 11:51:53 PM 41.4806 -95.8092 196° South 174 200 3,100 -393 Descending Minneapolis Center
Fri 11:52:11 PM 41.4628 -95.8361 229° Southwest 176 203 2,900 -590 Descending Minneapolis Center
Fri 11:52:54 PM 41.4406 -95.8475 201° Southwest 174 200 2,500 -600 Descending Minneapolis Center
Fri 11:53:11 PM 41.4214 -95.8744 227° Southwest 180 207 2,300 -393 Descending Minneapolis Center
Fri 11:53:55 PM 41.4006 -95.8867 204° Southwest 174 200 2,100 -98 Descending Minneapolis Center
Fri 11:54:12 PM 41.3817 -95.9039 214° Southwest 165 190 2,200 -98 Climbing Minneapolis Center
Fri 11:54:56 PM 41.3631 -95.9108 196° South 163 188 2,000 -300 Descending Minneapolis Center
Fri 11:55:12 PM 41.3494 -95.9244 217° Southwest 124 143 1,900 -492 Descending Minneapolis Center
Fri 11:55:57 PM 41.3333 -95.9256 183° South 132 152 1,500 -590 Descending Minneapolis Center
Fri 11:56:13 PM 41.3222 -95.9219 166° South 97 112 1,300 -492 Descending Minneapolis Center
Fri 11:56:58 PM 41.3108 -95.9036 130° Southeast 110 127 1,000 -400 Descending Minneapolis Center
Fri 11:58:00 PM 41.3032 -95.8941 217° Southwest  Level Estimated

Login

Don't have an account? Register now (free) for customized features, flight alerts, and more!